Time;durP1;ratioP1;P1;durP2;ratioP2;P2;SDS_P1;SDS_P2;PMS_P1;PMS_P2;Temp;Humidity;BMP_temperature;BMP_pressure;BME280_temperature;BME280_humidity;BME280_pressure;Samples;Min_cycle;Max_cycle;Signal;HPM_P1;HPM_P2
2024/01/01 00:02:23;;;;;;;7.13;6.53;;;;;;;-19.69;75.84;101313.56;5066368;28;20082;-60
2024/01/01 00:04:53;;;;;;;7.45;6.85;;;;;;;-19.52;75.45;101312.13;5036071;28;20099;-60
2024/01/01 00:07:24;;;;;;;7.97;6.00;;;;;;;-19.28;75.46;101307.56;5046272;28;20052;-60
2024/01/01 00:09:56;;;;;;;9.85;8.70;;;;;;;-19.07;75.18;101315.75;5050781;28;20963;-60
2024/01/01 00:12:26;;;;;;;8.77;7.97;;;;;;;-18.95;74.94;101319.69;5067036;28;20468;-61
2024/01/01 00:14:56;;;;;;;7.97;7.20;;;;;;;-18.77;74.77;101319.31;5056210;28;20626;-60
2024/01/01 00:17:27;;;;;;;7.10;6.40;;;;;;;-18.61;74.63;101321.97;5066103;28;20040;-61
2024/01/01 00:19:59;;;;;;;10.00;8.75;;;;;;;-18.49;74.49;101312.50;5057125;28;20051;-60
2024/01/01 00:22:29;;;;;;;11.52;10.32;;;;;;;-18.38;74.31;101314.59;5066475;28;20063;-61
2024/01/01 00:25:02;;;;;;;10.88;9.60;;;;;;;-18.22;74.22;101307.25;5041699;28;20052;-61
2024/01/01 00:27:36;;;;;;;12.55;9.63;;;;;;;-18.12;73.55;101316.66;5055280;28;20075;-61
2024/01/01 00:30:08;;;;;;;9.70;6.68;;;;;;;-18.00;73.14;101305.59;5065749;28;20098;-61
2024/01/01 00:32:38;;;;;;;5.80;5.13;;;;;;;-17.83;72.84;101295.00;5055376;28;20058;-61
2024/01/01 00:35:10;;;;;;;5.95;5.32;;;;;;;-17.52;72.79;101306.78;5066330;28;20085;-61
2024/01/01 00:37:40;;;;;;;5.50;5.00;;;;;;;-17.23;72.62;101296.59;5055181;28;20059;-61
2024/01/01 00:40:13;;;;;;;6.68;5.00;;;;;;;-16.98;72.21;101301.03;5065559;28;20531;-60
2024/01/01 00:42:43;;;;;;;6.93;6.22;;;;;;;-16.74;71.83;101299.38;5055278;28;20146;-61
2024/01/01 00:45:14;;;;;;;8.55;5.90;;;;;;;-16.47;71.72;101303.06;5065810;28;20499;-60
2024/01/01 00:47:44;;;;;;;8.32;5.78;;;;;;;-16.23;71.51;101300.66;5055376;28;20211;-61
2024/01/01 00:50:15;;;;;;;6.10;5.50;;;;;;;-15.99;71.13;101291.47;5065353;28;20080;-61
2024/01/01 00:52:46;;;;;;;8.18;5.68;;;;;;;-15.75;70.82;101299.00;5054715;28;20079;-61
2024/01/01 00:55:18;;;;;;;7.93;6.30;;;;;;;-15.48;70.52;101295.06;5065221;28;20048;-61
2024/01/01 00:57:51;;;;;;;14.57;7.13;;;;;;;-15.26;69.88;101289.00;5054683;28;20056;-61
2024/01/01 01:00:21;;;;;;;58.22;20.08;;;;;;;-15.10;68.94;101290.56;5065004;28;20109;-61
2024/01/01 01:02:51;;;;;;;14.18;7.72;;;;;;;-14.97;68.44;101286.06;5049300;28;20071;-61
2024/01/01 01:05:24;;;;;;;7.60;4.85;;;;;;;-14.83;67.81;101283.31;5025228;28;20053;-61
2024/01/01 01:07:54;;;;;;;5.95;4.50;;;;;;;-14.61;67.43;101285.44;5015965;28;20049;-61
2024/01/01 01:10:26;;;;;;;6.38;3.85;;;;;;;-14.46;66.87;101266.84;5025279;28;20052;-61
2024/01/01 01:12:57;;;;;;;6.72;3.97;;;;;;;-14.20;66.48;101276.03;5023285;28;20052;-61
2024/01/01 01:15:28;;;;;;;4.07;3.58;;;;;;;-14.12;65.74;101255.09;5044397;28;20048;-61
2024/01/01 01:17:58;;;;;;;5.40;3.85;;;;;;;-13.88;65.01;101275.78;5034312;28;20044;-61
2024/01/01 01:20:29;;;;;;;6.32;3.45;;;;;;;-13.81;64.23;101268.97;5044929;28;20045;-60
2024/01/01 01:22:59;;;;;;;4.85;3.95;;;;;;;-13.78;63.58;101274.28;5055033;28;20148;-61
2024/01/01 01:25:32;;;;;;;5.07;4.05;;;;;;;-13.82;62.52;101271.38;5065427;28;20048;-61
2024/01/01 01:28:03;;;;;;;4.05;3.65;;;;;;;-13.83;62.21;101269.56;5053734;28;20052;-61
2024/01/01 01:30:34;;;;;;;4.90;2.85;;;;;;;-13.77;62.06;101267.66;5062235;28;20120;-62
2024/01/01 01:33:05;;;;;;;3.15;2.85;;;;;;;-13.65;61.86;101258.78;5064345;28;20122;-61
2024/01/01 01:35:35;;;;;;;5.57;3.25;;;;;;;-13.52;61.95;101254.19;5055269;28;20052;-60
2024/01/01 01:38:06;;;;;;;6.28;4.22;;;;;;;-13.34;62.05;101251.63;5064410;28;20048;-62
2024/01/01 01:40:38;;;;;;;4.53;3.40;;;;;;;-13.19;61.94;101250.50;5054135;28;20138;-61
2024/01/01 01:43:21;;;;;;;6.53;3.70;;;;;;;-13.13;60.61;101241.00;5064300;28;20101;-61
2024/01/01 01:45:53;;;;;;;5.15;4.25;;;;;;;-13.19;60.38;101235.44;5053570;28;20443;-61
2024/01/01 01:48:24;;;;;;;11.43;3.63;;;;;;;-13.23;59.93;101232.47;5063241;28;20151;-61
2024/01/01 01:50:56;;;;;;;4.47;4.07;;;;;;;-13.20;60.46;101233.66;5053148;28;20124;-61
2024/01/01 01:53:27;;;;;;;4.65;3.95;;;;;;;-13.18;60.51;101221.22;5064146;28;20127;-61
2024/01/01 01:56:03;;;;;;;9.02;5.97;;;;;;;-13.94;60.72;101081.03;5053959;28;20044;-61
2024/01/01 01:58:35;;;;;;;13.98;6.18;;;;;;;-12.95;60.89;101231.78;5062464;28;20113;-61
2024/01/01 02:01:07;;;;;;;4.88;4.07;;;;;;;-12.81;60.84;101226.38;5063804;28;20051;-61
2024/01/01 02:03:37;;;;;;;3.42;3.13;;;;;;;-12.75;60.61;101228.59;5036288;28;20057;-61
2024/01/01 02:06:08;;;;;;;6.03;2.90;;;;;;;-12.70;60.32;101234.94;5024834;28;20060;-61
2024/01/01 02:08:38;;;;;;;3.30;3.00;;;;;;;-12.66;60.62;101231.94;5014468;28;20052;-61
2024/01/01 02:11:10;;;;;;;3.60;2.90;;;;;;;-12.57;60.46;101241.09;5025014;28;20110;-61
2024/01/01 02:13:41;;;;;;;3.35;3.05;;;;;;;-12.56;60.20;101227.75;5021928;28;20082;-61
2024/01/01 02:16:12;;;;;;;3.05;2.83;;;;;;;-12.57;60.19;101228.50;5043819;28;20139;-61
2024/01/01 02:18:42;;;;;;;4.93;3.08;;;;;;;-12.45;60.40;101217.03;5033445;28;20129;-61
2024/01/01 02:21:13;;;;;;;3.10;2.90;;;;;;;-12.33;59.87;101228.16;5043924;28;20056;-61
2024/01/01 02:23:45;;;;;;;3.45;2.72;;;;;;;-12.31;59.63;101219.13;5034184;28;20052;-61
2024/01/01 02:26:17;;;;;;;3.50;3.20;;;;;;;-12.32;59.44;101224.03;5044042;28;20049;-60
2024/01/01 02:28:47;;;;;;;3.85;2.92;;;;;;;-12.32;59.55;101209.81;5034649;28;20151;-61
2024/01/01 02:31:18;;;;;;;3.13;2.83;;;;;;;-12.21;59.69;101210.75;5043877;28;20044;-60
2024/01/01 02:33:48;;;;;;;3.83;2.90;;;;;;;-12.09;59.66;101195.84;5032960;28;20056;-61
2024/01/01 02:36:19;;;;;;;4.28;3.40;;;;;;;-12.09;59.17;101193.34;5044181;28;20051;-61
2024/01/01 02:38:51;;;;;;;3.30;3.00;;;;;;;-12.13;58.88;101196.31;5033541;28;20059;-61
2024/01/01 02:41:22;;;;;;;4.10;3.25;;;;;;;-12.07;59.22;101189.31;5043795;28;20052;-62
2024/01/01 02:43:52;;;;;;;3.10;2.90;;;;;;;-12.03;58.82;101199.81;5032723;28;20101;-61
2024/01/01 02:46:23;;;;;;;4.40;2.90;;;;;;;-12.06;58.67;101196.13;5043572;28;20397;-61
2024/01/01 02:48:53;;;;;;;3.33;3.00;;;;;;;-12.05;58.72;101185.31;5033652;28;20052;-61
2024/01/01 02:51:24;;;;;;;2.80;2.60;;;;;;;-11.82;59.05;101180.59;5043611;28;20037;-62
2024/01/01 02:53:57;;;;;;;3.03;2.80;;;;;;;-11.64;58.65;101170.34;5033857;28;20067;-61
2024/01/01 02:56:28;;;;;;;3.53;2.95;;;;;;;-11.74;58.81;101168.66;5043369;28;20076;-61
2024/01/01 02:58:58;;;;;;;5.25;2.97;;;;;;;-11.67;58.72;101165.03;5031971;28;20140;-61
2024/01/01 03:01:28;;;;;;;4.35;3.00;;;;;;;-11.69;58.27;101161.50;5032468;28;20048;-61
2024/01/01 03:03:59;;;;;;;8.07;3.22;;;;;;;-11.85;59.28;101160.19;5055316;28;20068;-61
2024/01/01 03:06:29;;;;;;;3.45;2.83;;;;;;;-11.92;59.47;101167.97;5067536;28;20134;-61
2024/01/01 03:09:01;;;;;;;3.38;2.60;;;;;;;-11.91;60.87;101178.94;5054922;28;21397;-61
2024/01/01 03:11:32;;;;;;;2.90;2.60;;;;;;;-11.70;60.62;101184.91;5066612;28;20044;-61
2024/01/01 03:14:02;;;;;;;4.25;2.72;;;;;;;-11.43;59.96;101172.19;5055264;28;20177;-61
2024/01/01 03:16:33;;;;;;;4.40;2.80;;;;;;;-11.39;58.96;101174.19;5058951;28;20052;-61
2024/01/01 03:19:03;;;;;;;2.80;2.60;;;;;;;-11.39;58.45;101171.69;5049991;28;20050;-62
2024/01/01 03:21:34;;;;;;;2.90;2.70;;;;;;;-11.22;58.76;101177.28;5065798;28;20059;-63
2024/01/01 03:24:06;;;;;;;3.47;2.88;;;;;;;-11.04;58.96;101173.78;5067103;28;20048;-61
2024/01/01 03:26:37;;;;;;;3.13;2.65;;;;;;;-10.81;59.08;101177.34;5056824;28;20059;-61
2024/01/01 03:29:07;;;;;;;5.78;3.05;;;;;;;-10.65;59.60;101175.34;5067043;28;20047;-61
2024/01/01 03:31:38;;;;;;;4.47;3.03;;;;;;;-10.50;60.57;101165.63;5056637;28;20050;-62
2024/01/01 03:34:09;;;;;;;2.88;2.30;;;;;;;-10.50;59.53;101150.47;5066843;28;20098;-62
2024/01/01 03:36:40;;;;;;;2.67;2.40;;;;;;;-10.48;59.25;101147.31;5056450;28;20381;-61
2024/01/01 03:39:11;;;;;;;3.55;3.08;;;;;;;-10.45;58.92;101145.03;5066467;28;20047;-61
2024/01/01 03:41:42;;;;;;;7.00;2.72;;;;;;;-10.46;58.67;101153.38;5053951;28;20177;-60
2024/01/01 03:44:13;;;;;;;4.93;2.75;;;;;;;-10.37;58.93;101157.41;5067080;28;20152;-60
2024/01/01 03:46:44;;;;;;;8.05;2.70;;;;;;;-10.31;58.95;101155.34;5056131;28;20044;-61
2024/01/01 03:49:15;;;;;;;4.13;2.63;;;;;;;-10.27;58.83;101162.41;5066571;28;20048;-60
2024/01/01 03:51:45;;;;;;;4.15;2.70;;;;;;;-10.29;57.77;101161.41;5056039;28;20056;-61
2024/01/01 03:54:18;;;;;;;4.03;2.95;;;;;;;-10.22;58.04;101156.06;5066492;28;20116;-61
2024/01/01 03:56:48;;;;;;;6.32;2.92;;;;;;;-10.17;58.42;101157.31;5055754;28;20116;-61
2024/01/01 03:59:18;;;;;;;6.20;2.97;;;;;;;-10.05;58.64;101168.41;5066159;28;20040;-61
2024/01/01 04:01:49;;;;;;;4.95;2.95;;;;;;;-10.01;58.27;101160.31;5056675;28;20048;-60
2024/01/01 04:04:19;;;;;;;9.55;3.00;;;;;;;-10.04;57.57;101165.13;5066317;28;20059;-61
2024/01/01 04:06:50;;;;;;;7.53;3.20;;;;;;;-10.08;56.79;101165.66;5055315;28;20084;-61
2024/01/01 04:09:22;;;;;;;4.22;2.75;;;;;;;-10.27;56.04;101170.84;5066275;28;20079;-61
2024/01/01 04:11:52;;;;;;;5.85;3.25;;;;;;;-10.44;56.03;101172.03;5055439;28;20079;-61
2024/01/01 04:14:23;;;;;;;5.53;3.15;;;;;;;-10.51;56.05;101164.72;5065421;28;20138;-61
2024/01/01 04:16:54;;;;;;;12.93;5.63;;;;;;;-10.48;56.29;101154.88;5055902;28;20243;-61
2024/01/01 04:19:24;;;;;;;6.80;3.65;;;;;;;-10.62;57.22;101168.00;5065543;28;20039;-61
2024/01/01 04:21:55;;;;;;;5.35;3.17;;;;;;;-10.91;57.29;101166.47;5042397;28;20053;-61
2024/01/01 04:24:27;;;;;;;4.38;2.83;;;;;;;-10.91;57.74;101169.00;5026060;28;20068;-60
2024/01/01 04:26:57;;;;;;;9.68;4.43;;;;;;;-10.68;59.17;101159.94;5031907;28;20072;-61
2024/01/01 04:29:28;;;;;;;8.88;4.15;;;;;;;-10.51;59.63;101169.75;5045943;28;20045;-62
2024/01/01 04:31:58;;;;;;;8.13;2.80;;;;;;;-10.32;60.63;101156.13;5030100;28;20143;-61
2024/01/01 04:34:28;;;;;;;4.38;2.80;;;;;;;-10.23;60.16;101146.72;5046092;28;20401;-61
2024/01/01 04:36:59;;;;;;;6.22;3.13;;;;;;;-10.23;59.35;101151.78;5054337;28;20139;-61
2024/01/01 04:39:31;;;;;;;5.78;3.08;;;;;;;-10.08;59.98;101153.00;5065335;28;20087;-60
2024/01/01 04:42:01;;;;;;;5.22;3.00;;;;;;;-9.94;60.55;101148.16;5054746;28;20071;-61
2024/01/01 04:44:32;;;;;;;7.00;3.15;;;;;;;-9.98;59.85;101154.63;5065653;28;20040;-61
2024/01/01 04:47:02;;;;;;;4.95;3.10;;;;;;;-10.21;58.45;101150.25;5055765;28;20053;-60
2024/01/01 04:49:32;;;;;;;8.75;3.13;;;;;;;-10.21;59.15;101146.09;5065702;28;20040;-61
2024/01/01 04:52:03;;;;;;;3.50;2.60;;;;;;;-10.24;59.18;101150.00;5044177;28;20044;-61
2024/01/01 04:54:35;;;;;;;5.25;2.70;;;;;;;-10.19;60.01;101148.72;5025429;28;20135;-61
2024/01/01 04:57:06;;;;;;;3.72;2.80;;;;;;;-9.92;62.46;101146.66;5025515;28;20077;-61
2024/01/01 04:59:36;;;;;;;2.85;2.42;;;;;;;-9.88;62.89;101128.41;5015026;28;20507;-62
2024/01/01 05:02:07;;;;;;;5.05;2.50;;;;;;;-9.85;60.96;101137.13;5036947;28;20045;-61
2024/01/01 05:04:37;;;;;;;5.40;2.50;;;;;;;-9.73;61.89;101139.75;5054630;28;20067;-60
2024/01/01 05:07:08;;;;;;;6.43;2.65;;;;;;;-9.73;60.89;101142.28;5064571;28;20047;-61
2024/01/01 05:09:40;;;;;;;3.50;2.35;;;;;;;-9.89;59.48;101154.47;5054894;28;20051;-61
2024/01/01 05:12:10;;;;;;;3.33;2.45;;;;;;;-10.09;58.95;101160.47;5056705;28;20052;-60
2024/01/01 05:14:40;;;;;;;5.47;2.40;;;;;;;-10.24;58.33;101162.63;5054852;28;20137;-61
2024/01/01 05:17:11;;;;;;;5.10;2.55;;;;;;;-10.26;58.10;101156.56;5065278;28;20056;-61
2024/01/01 05:19:41;;;;;;;7.43;4.32;;;;;;;-10.35;58.84;101160.94;5055888;28;20135;-61
2024/01/01 05:22:12;;;;;;;7.88;4.72;;;;;;;-10.46;59.59;101153.38;5052455;28;20051;-61
2024/01/01 05:24:44;;;;;;;10.07;4.72;;;;;;;-10.45;59.51;101155.13;5034239;28;20060;-61
2024/01/01 05:27:14;;;;;;;3.25;2.78;;;;;;;-10.49;59.04;101163.19;5044411;28;20491;-61
2024/01/01 05:29:45;;;;;;;5.53;2.95;;;;;;;-10.50;59.39;101161.44;5034088;28;20048;-61
2024/01/01 05:32:15;;;;;;;4.18;2.70;;;;;;;-10.61;58.30;101167.25;5045987;28;20052;-61
2024/01/01 05:34:46;;;;;;;5.55;3.08;;;;;;;-10.78;58.38;101164.97;5054585;28;20143;-61
2024/01/01 05:37:17;;;;;;;6.68;3.67;;;;;;;-10.82;59.28;101166.38;5064658;28;20056;-61
2024/01/01 05:39:49;;;;;;;8.68;4.63;;;;;;;-10.96;58.96;101165.19;5054357;28;20473;-61
2024/01/01 05:42:19;;;;;;;7.32;3.47;;;;;;;-10.99;59.67;101159.91;5064423;28;20047;-61
2024/01/01 05:44:50;;;;;;;8.50;5.18;;;;;;;-11.02;59.68;101154.59;5053649;28;20056;-61
2024/01/01 05:47:20;;;;;;;75.90;21.58;;;;;;;-11.12;59.56;101154.59;5064046;28;20052;-61
2024/01/01 05:49:51;;;;;;;100.40;26.55;;;;;;;-11.19;60.03;101164.94;5017063;28;20790;-60
2024/01/01 05:52:21;;;;;;;37.75;12.07;;;;;;;-11.14;61.22;101156.97;5024772;28;20057;-61
2024/01/01 05:54:53;;;;;;;48.10;12.13;;;;;;;-11.07;62.68;101138.19;5014628;28;20060;-61
2024/01/01 05:57:24;;;;;;;30.05;10.05;;;;;;;-11.21;62.44;101138.69;5024825;28;20086;-60
2024/01/01 05:59:54;;;;;;;43.67;15.05;;;;;;;-11.42;61.98;101138.63;5020366;28;20072;-61
2024/01/01 06:02:25;;;;;;;16.38;7.93;;;;;;;-11.53;62.51;101136.81;5043273;28;20576;-61
2024/01/01 06:04:55;;;;;;;5.20;4.15;;;;;;;-11.69;62.90;101138.81;5033479;28;20058;-61
2024/01/01 06:07:26;;;;;;;4.43;3.50;;;;;;;-11.75;63.09;101136.66;5043516;28;20145;-62
2024/01/01 06:09:58;;;;;;;4.45;2.83;;;;;;;-11.82;63.90;101130.19;5033234;28;20411;-63
2024/01/01 06:12:29;;;;;;;10.93;6.30;;;;;;;-12.12;64.62;101132.59;5043121;28;20048;-62
2024/01/01 06:14:59;;;;;;;7.45;4.40;;;;;;;-12.43;65.04;101140.88;5035065;28;20075;-61
2024/01/01 06:17:30;;;;;;;3.50;2.90;;;;;;;-12.65;65.96;101140.56;5054765;28;20048;-61
2024/01/01 06:20:00;;;;;;;6.03;2.53;;;;;;;-12.81;66.52;101142.44;5049582;28;20055;-61
2024/01/01 06:22:31;;;;;;;4.75;3.00;;;;;;;-12.94;66.91;101152.16;5063539;28;20040;-62
2024/01/01 06:25:03;;;;;;;6.05;3.30;;;;;;;-13.08;67.17;101149.28;5050229;28;20055;-61
2024/01/01 06:27:33;;;;;;;5.00;2.92;;;;;;;-13.14;67.74;101153.72;5063538;28;20178;-62
2024/01/01 06:30:04;;;;;;;8.25;6.13;;;;;;;-13.94;67.73;101086.06;5047517;28;20048;-61
2024/01/01 06:32:34;;;;;;;28.85;17.90;;;;;;;-13.93;68.78;101163.19;5059413;28;20064;-63
2024/01/01 06:35:05;;;;;;;8.95;6.70;;;;;;;-14.23;70.32;101165.28;5060748;28;20474;-61
2024/01/01 06:37:36;;;;;;;15.30;7.45;;;;;;;-14.31;71.22;101181.25;5053128;28;20054;-62
2024/01/01 06:40:09;;;;;;;72.10;23.77;;;;;;;-14.43;71.54;101165.88;5060866;28;20066;-63
2024/01/01 06:42:40;;;;;;;175.35;50.33;;;;;;;-14.59;72.09;101171.06;5052453;28;20044;-61
2024/01/01 06:45:11;;;;;;;135.98;38.95;;;;;;;-14.78;72.82;101176.78;5063850;28;20044;-61
2024/01/01 06:47:42;;;;;;;111.50;31.00;;;;;;;-14.93;73.30;101180.28;5033342;28;20056;-62
2024/01/01 06:50:12;;;;;;;39.05;14.52;;;;;;;-15.16;73.31;101169.63;5043582;28;20127;-61
2024/01/01 06:52:43;;;;;;;8.70;6.03;;;;;;;-15.22;74.56;101185.81;5033864;28;20062;-61
2024/01/01 06:55:17;;;;;;;8.38;5.85;;;;;;;-15.38;74.94;101182.50;5059047;28;20040;-61
2024/01/01 06:57:47;;;;;;;7.78;3.97;;;;;;;-15.51;76.41;101179.50;5033650;28;20063;-61
2024/01/01 07:00:19;;;;;;;4.95;4.32;;;;;;;-15.54;76.76;101179.19;5042486;28;22023;-61
2024/01/01 07:02:50;;;;;;;8.82;6.28;;;;;;;-15.50;77.25;101176.25;5032527;28;20083;-61
2024/01/01 07:05:21;;;;;;;5.15;3.72;;;;;;;-15.38;77.98;101174.97;5043141;28;20047;-61
2024/01/01 07:07:52;;;;;;;4.68;3.40;;;;;;;-15.33;78.17;101181.34;5033385;28;20048;-61
2024/01/01 07:10:24;;;;;;;3.65;3.35;;;;;;;-15.15;78.99;101171.38;5043085;28;20044;-61
2024/01/01 07:12:54;;;;;;;4.18;3.17;;;;;;;-14.96;79.26;101169.97;5032777;28;20119;-61
2024/01/01 07:15:25;;;;;;;4.32;3.10;;;;;;;-14.78;78.96;101166.75;5062921;28;20051;-61
2024/01/01 07:17:55;;;;;;;3.95;3.55;;;;;;;-14.74;78.43;101167.06;5047178;28;20130;-63
2024/01/01 07:20:29;;;;;;;9.88;5.95;;;;;;;-14.74;78.30;101172.09;5063442;28;20044;-62
2024/01/01 07:23:00;;;;;;;4.22;3.83;;;;;;;-14.92;77.31;101171.13;5053971;28;20097;-62
2024/01/01 07:25:32;;;;;;;5.00;4.22;;;;;;;-15.06;77.62;101167.28;5057751;28;20508;-62
2024/01/01 07:28:03;;;;;;;5.05;4.15;;;;;;;-15.10;77.80;101167.69;5040622;28;20052;-62
2024/01/01 07:30:34;;;;;;;12.60;5.70;;;;;;;-15.31;77.35;101169.84;5041672;28;20157;-62
2024/01/01 07:33:05;;;;;;;59.25;14.25;;;;;;;-15.50;77.16;101182.16;5048099;28;20156;-61
2024/01/01 07:35:35;;;;;;;111.57;20.02;;;;;;;-15.65;77.16;101190.59;5056679;28;20052;-62
2024/01/01 07:38:07;;;;;;;95.72;20.70;;;;;;;-15.74;77.46;101188.09;5064064;28;20044;-61
2024/01/01 07:40:39;;;;;;;123.25;24.00;;;;;;;-15.71;78.11;101190.03;5035709;28;20053;-61
2024/01/01 07:43:10;;;;;;;130.10;24.80;;;;;;;-15.74;78.41;101198.13;5034563;28;20063;-61
2024/01/01 07:45:40;;;;;;;96.00;22.65;;;;;;;-15.74;78.62;101195.59;5017254;28;20057;-61
2024/01/01 07:48:11;;;;;;;41.22;11.20;;;;;;;-15.52;79.07;101203.66;5023446;28;20049;-61
2024/01/01 07:50:41;;;;;;;20.63;8.93;;;;;;;-15.52;78.75;101202.75;5017339;28;20059;-62
2024/01/01 07:53:11;;;;;;;15.02;7.55;;;;;;;-15.54;78.04;101199.22;5027294;28;20175;-61
2024/01/01 07:55:43;;;;;;;7.07;4.88;;;;;;;-15.66;77.36;101194.72;5017510;28;20064;-61
2024/01/01 07:58:14;;;;;;;8.15;4.75;;;;;;;-15.73;77.08;101197.38;5026328;28;20044;-61
2024/01/01 08:00:44;;;;;;;14.30;6.28;;;;;;;-15.76;76.81;101194.56;5034949;28;20048;-61
2024/01/01 08:03:15;;;;;;;12.93;6.65;;;;;;;-15.77;76.69;101195.31;5043302;28;20347;-61
2024/01/01 08:05:45;;;;;;;16.67;6.15;;;;;;;-15.79;76.37;101179.22;5035466;28;20441;-61
2024/01/01 08:08:17;;;;;;;13.50;6.28;;;;;;;-15.81;76.23;101183.19;5038389;28;20140;-61
2024/01/01 08:10:49;;;;;;;12.57;5.97;;;;;;;-15.79;76.19;101181.72;5017125;28;20072;-62
2024/01/01 08:13:19;;;;;;;12.02;5.50;;;;;;;-15.80;76.28;101174.94;5028525;28;20057;-61
2024/01/01 08:15:50;;;;;;;9.95;5.32;;;;;;;-15.88;76.13;101185.78;5025061;28;20056;-62
2024/01/01 08:18:20;;;;;;;9.65;5.90;;;;;;;-15.89;76.31;101181.53;5007598;28;20622;-62
2024/01/01 08:20:51;;;;;;;11.27;7.07;;;;;;;-15.91;76.16;101178.84;5000017;28;20605;-62
2024/01/01 08:23:22;;;;;;;44.95;12.50;;;;;;;-15.98;75.78;101186.47;5008012;28;20073;-61
2024/01/01 08:25:54;;;;;;;39.88;12.75;;;;;;;-15.94;75.89;101192.69;4997895;28;20059;-62
2024/01/01 08:28:24;;;;;;;65.20;15.07;;;;;;;-15.89;75.89;101179.03;5019830;28;20041;-61
2024/01/01 08:30:55;;;;;;;59.80;14.75;;;;;;;-15.72;76.32;101184.13;5002247;28;20453;-61
2024/01/01 08:33:25;;;;;;;39.58;12.07;;;;;;;-15.61;76.37;101186.81;5022355;28;20051;-61
2024/01/01 08:35:56;;;;;;;23.30;7.75;;;;;;;-15.63;76.27;101188.25;5015943;28;20741;-62
2024/01/01 08:38:26;;;;;;;18.90;6.90;;;;;;;-15.66;75.98;101194.72;5023457;28;20044;-61
2024/01/01 08:40:58;;;;;;;61.38;15.15;;;;;;;-15.65;75.74;101209.03;5016905;28;20049;-62
2024/01/01 08:43:29;;;;;;;38.63;12.38;;;;;;;-15.78;74.94;101203.53;5022122;28;20045;-61
2024/01/01 08:46:00;;;;;;;49.78;12.77;;;;;;;-15.75;75.14;101196.31;4997939;28;20085;-61
2024/01/01 08:48:30;;;;;;;41.10;11.50;;;;;;;-15.83;74.49;101198.78;5013712;28;20117;-61
2024/01/01 08:51:02;;;;;;;23.92;6.75;;;;;;;-15.86;74.54;101179.31;5007346;28;20049;-61
2024/01/01 08:53:33;;;;;;;12.77;5.72;;;;;;;-15.98;74.18;101173.06;5025990;28;20152;-61
2024/01/01 08:56:07;;;;;;;8.25;4.38;;;;;;;-16.13;73.78;101173.25;5008587;28;20052;-61
2024/01/01 08:58:38;;;;;;;6.30;3.60;;;;;;;-16.41;73.54;101149.50;5014552;28;20473;-61
2024/01/01 09:01:08;;;;;;;6.13;4.53;;;;;;;-16.68;73.62;101152.50;5023379;28;20056;-61
2024/01/01 09:03:40;;;;;;;108.28;44.83;;;;;;;-16.85;73.80;101147.34;5016226;28;20185;-61
2024/01/01 09:06:11;;;;;;;47.85;20.75;;;;;;;-17.04;74.16;101157.91;5024036;28;20045;-61
2024/01/01 09:08:43;;;;;;;48.20;22.70;;;;;;;-16.94;75.13;101151.38;5015715;28;20049;-61
2024/01/01 09:11:15;;;;;;;36.75;16.20;;;;;;;-16.94;75.66;101156.38;5025865;28;20102;-61
2024/01/01 09:13:45;;;;;;;23.35;12.55;;;;;;;-16.93;75.72;101148.16;5014541;28;20051;-61
2024/01/01 09:16:16;;;;;;;22.20;12.07;;;;;;;-16.96;75.63;101149.63;5027704;28;20045;-61
2024/01/01 09:18:46;;;;;;;30.67;14.48;;;;;;;-17.00;75.86;101141.63;5032244;28;20370;-61
2024/01/01 09:21:17;;;;;;;31.75;16.45;;;;;;;-17.02;75.81;101138.97;5044961;28;20244;-61
2024/01/01 09:23:48;;;;;;;44.00;22.05;;;;;;;-17.02;75.85;101128.97;5030188;28;20110;-61
2024/01/01 09:26:20;;;;;;;22.85;13.25;;;;;;;-17.14;75.63;101127.69;5041318;28;20066;-61
2024/01/01 09:28:50;;;;;;;27.98;10.52;;;;;;;-17.36;75.15;101121.13;5034387;28;20048;-61
2024/01/01 09:31:21;;;;;;;119.13;33.25;;;;;;;-17.42;75.61;101122.25;5042344;28;20067;-61
2024/01/01 09:33:51;;;;;;;112.05;29.85;;;;;;;-17.37;76.14;101111.81;5032383;28;20072;-62
2024/01/01 09:36:22;;;;;;;62.30;21.88;;;;;;;-17.25;76.96;101103.16;5042746;28;20056;-61
2024/01/01 09:38:52;;;;;;;51.38;17.30;;;;;;;-17.17;77.12;101112.34;5034136;28;20048;-61
2024/01/01 09:41:25;;;;;;;48.03;16.08;;;;;;;-17.21;76.92;101113.63;5040851;28;20053;-61
2024/01/01 09:43:56;;;;;;;36.30;13.38;;;;;;;-17.22;76.63;101128.44;5023850;28;20055;-61
2024/01/01 09:46:32;;;;;;;43.47;14.68;;;;;;;-17.08;77.28;101118.31;5044936;28;20064;-61
2024/01/01 09:49:04;;;;;;;43.67;14.20;;;;;;;-16.97;77.42;101117.84;5032970;28;20048;-61
2024/01/01 09:51:39;;;;;;;55.65;18.17;;;;;;;-16.92;77.32;101104.94;5037760;28;20056;-61
2024/01/01 09:54:10;;;;;;;26.40;12.32;;;;;;;-17.09;76.58;101100.69;5044707;28;20055;-61
2024/01/01 09:56:42;;;;;;;24.33;11.38;;;;;;;-17.17;76.47;101112.34;5032279;28;20056;-61
2024/01/01 09:59:13;;;;;;;18.33;8.63;;;;;;;-17.21;76.26;101100.25;5044114;28;20163;-60
2024/01/01 10:01:45;;;;;;;20.15;9.55;;;;;;;-17.28;75.99;101107.81;5035012;28;20048;-61
2024/01/01 10:04:22;;;;;;;21.10;8.30;;;;;;;-17.34;75.67;101112.16;5043800;28;20059;-61
2024/01/01 10:06:58;;;;;;;13.80;7.45;;;;;;;-17.74;75.09;101052.94;5033699;28;20051;-61
2024/01/01 10:09:29;;;;;;;15.25;7.13;;;;;;;-17.33;75.57;101096.47;5043147;28;20123;-61
2024/01/01 10:12:10;;;;;;;18.35;8.05;;;;;;;-16.59;77.83;101078.44;5031401;28;20052;-61
2024/01/01 10:14:47;;;;;;;18.63;7.90;;;;;;;-16.04;79.45;101072.31;5033940;28;20053;-61
2024/01/01 10:17:19;;;;;;;15.65;7.80;;;;;;;-15.80;79.97;101074.75;5052885;28;20044;-60
2024/01/01 10:19:51;;;;;;;9.85;6.35;;;;;;;-15.97;78.43;101069.66;5053688;28;20039;-61
2024/01/01 10:22:23;;;;;;;11.23;6.75;;;;;;;-16.36;77.07;101072.41;5063035;28;20417;-60
2024/01/01 10:24:55;;;;;;;19.80;7.53;;;;;;;-16.55;76.64;101058.00;5040531;28;20462;-60
2024/01/01 10:27:27;;;;;;;13.57;7.40;;;;;;;-16.55;76.79;101060.50;5061368;28;20135;-62
2024/01/01 10:29:58;;;;;;;15.20;7.63;;;;;;;-16.56;76.78;101057.84;5052977;28;20059;-61
2024/01/01 10:32:31;;;;;;;15.80;7.75;;;;;;;-16.53;76.76;101063.16;5063386;28;20048;-61
2024/01/01 10:35:04;;;;;;;16.38;9.18;;;;;;;-16.59;76.64;101060.94;5052934;28;20051;-62
2024/01/01 10:37:35;;;;;;;20.30;9.02;;;;;;;-16.62;76.36;101063.13;5060312;28;20059;-61
2024/01/01 10:40:07;;;;;;;16.42;7.95;;;;;;;-16.47;76.63;101062.91;5064081;28;20104;-61
2024/01/01 10:42:40;;;;;;;16.08;7.80;;;;;;;-16.00;77.74;101051.84;5053617;28;20058;-61
2024/01/01 10:45:10;;;;;;;26.63;10.55;;;;;;;-15.82;77.99;101051.22;5063585;28;20447;-61
2024/01/01 10:47:41;;;;;;;23.80;10.85;;;;;;;-15.49;78.92;101031.09;5047113;28;20059;-61
2024/01/01 10:50:26;;;;;;;25.55;10.68;;;;;;;-15.39;78.81;101020.34;5032345;28;20118;-61
2024/01/01 10:53:08;;;;;;;56.47;16.77;;;;;;;-15.58;77.89;101029.28;5013865;28;20045;-61
2024/01/01 10:55:58;;;;;;;52.08;17.38;;;;;;;-15.96;76.58;101031.41;5032535;28;20167;-61
2024/01/01 10:58:47;;;;;;;37.15;14.02;;;;;;;-16.04;76.24;101032.25;5043070;28;20091;-62
2024/01/01 11:01:21;;;;;;;24.83;11.00;;;;;;;-16.18;75.72;101029.22;5042023;28;20054;-61
2024/01/01 11:03:52;;;;;;;25.35;11.85;;;;;;;-16.27;75.37;101048.34;5033063;28;20083;-61
2024/01/01 11:06:26;;;;;;;26.83;11.93;;;;;;;-16.37;75.67;101020.56;5048686;28;20059;-61
2024/01/01 11:08:57;;;;;;;32.20;12.15;;;;;;;-16.17;76.54;101035.13;5052481;28;20125;-61
2024/01/01 11:11:30;;;;;;;34.70;14.32;;;;;;;-15.83;78.29;101018.50;5061883;28;20492;-61
2024/01/01 11:14:02;;;;;;;34.40;12.75;;;;;;;-15.36;78.73;101040.69;5052458;28;20131;-60
2024/01/01 11:16:51;;;;;;;27.65;12.02;;;;;;;-15.70;79.55;100867.09;5062887;28;20070;-61
2024/01/01 11:19:42;;;;;;;27.15;12.43;;;;;;;-14.81;79.97;101000.91;5062279;28;20051;-61
2024/01/01 11:22:35;;;;;;;33.20;14.80;;;;;;;-14.55;80.19;101005.00;5050398;28;20362;-61
2024/01/01 11:25:06;;;;;;;24.75;12.02;;;;;;;-14.30;80.62;101007.28;5055888;28;20144;-61
2024/01/01 11:27:48;;;;;;;20.63;10.10;;;;;;;-13.94;81.56;101000.66;5057253;28;20104;-61
2024/01/01 11:30:20;;;;;;;20.17;9.85;;;;;;;-13.65;81.83;100994.91;5067099;28;20121;-62
2024/01/01 11:32:51;;;;;;;21.88;8.85;;;;;;;-13.66;79.78;100993.13;5056961;28;20072;-61